sensor_id;sensor_type;location;lat;lon;timestamp;temperature;humidity
9861;DHT22;4969;52.304;4.968;2024-03-23T00:53:33;15.48;69.16
9861;DHT22;4969;52.304;4.968;2024-03-23T00:55:59;15.27;67.35
9861;DHT22;4969;52.304;4.968;2024-03-23T00:58:25;15.04;68.21
9861;DHT22;4969;52.304;4.968;2024-03-23T01:00:51;14.81;69.42
9861;DHT22;4969;52.304;4.968;2024-03-23T01:03:17;14.58;68.20
9861;DHT22;4969;52.304;4.968;2024-03-23T01:05:43;14.73;70.14
9861;DHT22;4969;52.304;4.968;2024-03-23T01:08:09;14.95;70.08
9861;DHT22;4969;52.304;4.968;2024-03-23T01:10:37;15.07;70.35
9861;DHT22;4969;52.304;4.968;2024-03-23T01:13:02;15.27;69.71
9861;DHT22;4969;52.304;4.968;2024-03-23T01:15:29;15.30;69.16
9861;DHT22;4969;52.304;4.968;2024-03-23T01:17:55;15.51;69.82
9861;DHT22;4969;52.304;4.968;2024-03-23T01:20:21;15.41;69.66
9861;DHT22;4969;52.304;4.968;2024-03-23T01:22:47;15.50;69.07
9861;DHT22;4969;52.304;4.968;2024-03-23T01:25:13;15.61;69.37
9861;DHT22;4969;52.304;4.968;2024-03-23T01:27:40;15.66;69.09
9861;DHT22;4969;52.304;4.968;2024-03-23T01:30:07;15.51;68.80
9861;DHT22;4969;52.304;4.968;2024-03-23T01:32:33;15.48;69.01
9861;DHT22;4969;52.304;4.968;2024-03-23T01:34:59;15.36;68.85
9861;DHT22;4969;52.304;4.968;2024-03-23T01:37:25;15.31;69.03
9861;DHT22;4969;52.304;4.968;2024-03-23T01:39:51;15.34;69.14
9861;DHT22;4969;52.304;4.968;2024-03-23T01:42:17;15.53;69.27
9861;DHT22;4969;52.304;4.968;2024-03-23T01:44:45;15.47;69.03
9861;DHT22;4969;52.304;4.968;2024-03-23T01:47:10;15.54;68.20
9861;DHT22;4969;52.304;4.968;2024-03-23T01:49:37;15.54;68.79
9861;DHT22;4969;52.304;4.968;2024-03-23T01:52:03;15.27;68.63
9861;DHT22;4969;52.304;4.968;2024-03-23T01:54:30;15.51;69.19
9861;DHT22;4969;52.304;4.968;2024-03-23T01:56:56;15.23;68.46
9861;DHT22;4969;52.304;4.968;2024-03-23T01:59:23;15.18;68.98
9861;DHT22;4969;52.304;4.968;2024-03-23T02:01:50;15.02;68.96
9861;DHT22;4969;52.304;4.968;2024-03-23T02:04:16;15.16;69.45
9861;DHT22;4969;52.304;4.968;2024-03-23T02:06:42;15.24;69.28
9861;DHT22;4969;52.304;4.968;2024-03-23T02:09:08;15.13;68.25
9861;DHT22;4969;52.304;4.968;2024-03-23T02:11:34;14.69;66.91
9861;DHT22;4969;52.304;4.968;2024-03-23T02:14:00;14.05;67.17
9861;DHT22;4969;52.304;4.968;2024-03-23T02:16:26;13.72;68.32
9861;DHT22;4969;52.304;4.968;2024-03-23T02:18:54;13.85;70.44
9861;DHT22;4969;52.304;4.968;2024-03-23T02:21:20;13.51;69.03
9861;DHT22;4969;52.304;4.968;2024-03-23T02:23:47;13.57;67.03
9861;DHT22;4969;52.304;4.968;2024-03-23T02:26:13;13.48;67.82
9861;DHT22;4969;52.304;4.968;2024-03-23T02:28:40;12.80;66.34
9861;DHT22;4969;52.304;4.968;2024-03-23T02:31:06;12.57;66.26
9861;DHT22;4969;52.304;4.968;2024-03-23T02:33:32;12.19;64.65
9861;DHT22;4969;52.304;4.968;2024-03-23T02:35:59;11.69;66.76
9861;DHT22;4969;52.304;4.968;2024-03-23T02:38:26;11.72;67.60
9861;DHT22;4969;52.304;4.968;2024-03-23T02:40:53;11.64;67.14
9861;DHT22;4969;52.304;4.968;2024-03-23T02:43:19;12.20;71.48
9861;DHT22;4969;52.304;4.968;2024-03-23T02:45:44;12.16;68.23
9861;DHT22;4969;52.304;4.968;2024-03-23T02:48:11;12.24;70.23
9861;DHT22;4969;52.304;4.968;2024-03-23T02:50:36;12.83;69.45
9861;DHT22;4969;52.304;4.968;2024-03-23T02:53:03;12.62;68.91
9861;DHT22;4969;52.304;4.968;2024-03-23T02:55:29;12.71;69.44
9861;DHT22;4969;52.304;4.968;2024-03-23T02:57:57;12.88;69.95
9861;DHT22;4969;52.304;4.968;2024-03-23T03:00:27;13.40;72.93
9861;DHT22;4969;52.304;4.968;2024-03-23T03:02:53;12.64;67.47
9861;DHT22;4969;52.304;4.968;2024-03-23T03:05:19;12.34;66.70
9861;DHT22;4969;52.304;4.968;2024-03-23T03:07:45;13.07;69.95
9861;DHT22;4969;52.304;4.968;2024-03-23T03:10:11;13.19;68.29
9861;DHT22;4969;52.304;4.968;2024-03-23T03:12:37;13.63;70.65
9861;DHT22;4969;52.304;4.968;2024-03-23T03:15:05;13.55;69.60
9861;DHT22;4969;52.304;4.968;2024-03-23T03:17:32;13.30;68.75
9861;DHT22;4969;52.304;4.968;2024-03-23T03:19:58;12.85;66.52
9861;DHT22;4969;52.304;4.968;2024-03-23T03:22:25;13.50;69.97
9861;DHT22;4969;52.304;4.968;2024-03-23T03:24:50;13.71;70.13
9861;DHT22;4969;52.304;4.968;2024-03-23T03:27:17;14.18;69.95
9861;DHT22;4969;52.304;4.968;2024-03-23T03:29:42;14.64;69.54
9861;DHT22;4969;52.304;4.968;2024-03-23T03:32:10;14.68;68.34
9861;DHT22;4969;52.304;4.968;2024-03-23T03:34:36;14.60;68.83
9861;DHT22;4969;52.304;4.968;2024-03-23T03:37:02;14.75;68.35
9861;DHT22;4969;52.304;4.968;2024-03-23T03:39:28;14.83;68.06
9861;DHT22;4969;52.304;4.968;2024-03-23T03:41:54;14.52;67.75
9861;DHT22;4969;52.304;4.968;2024-03-23T03:44:20;14.47;68.46
9861;DHT22;4969;52.304;4.968;2024-03-23T03:46:46;14.58;62.66
9861;DHT22;4969;52.304;4.968;2024-03-23T03:49:13;13.79;65.67
9861;DHT22;4969;52.304;4.968;2024-03-23T03:51:40;13.30;65.32
9861;DHT22;4969;52.304;4.968;2024-03-23T03:54:06;12.64;65.81
9861;DHT22;4969;52.304;4.968;2024-03-23T03:56:32;12.55;66.58
9861;DHT22;4969;52.304;4.968;2024-03-23T03:58:58;12.47;62.48
9861;DHT22;4969;52.304;4.968;2024-03-23T04:01:24;12.76;68.38
9861;DHT22;4969;52.304;4.968;2024-03-23T04:03:50;13.02;67.54
9861;DHT22;4969;52.304;4.968;2024-03-23T04:06:21;13.35;66.78
9861;DHT22;4969;52.304;4.968;2024-03-23T04:08:46;13.00;67.77
9861;DHT22;4969;52.304;4.968;2024-03-23T04:11:13;13.10;67.59
9861;DHT22;4969;52.304;4.968;2024-03-23T04:13:38;13.28;68.73
9861;DHT22;4969;52.304;4.968;2024-03-23T04:16:07;13.12;66.25
9861;DHT22;4969;52.304;4.968;2024-03-23T04:18:32;13.26;67.98
9861;DHT22;4969;52.304;4.968;2024-03-23T04:20:59;13.59;68.58
9861;DHT22;4969;52.304;4.968;2024-03-23T04:23:25;13.28;68.09
9861;DHT22;4969;52.304;4.968;2024-03-23T04:25:52;13.34;67.72
9861;DHT22;4969;52.304;4.968;2024-03-23T04:28:18;13.47;67.93
9861;DHT22;4969;52.304;4.968;2024-03-23T04:30:45;13.22;66.86
9861;DHT22;4969;52.304;4.968;2024-03-23T04:33:10;13.28;67.26
9861;DHT22;4969;52.304;4.968;2024-03-23T04:35:37;13.12;67.27
9861;DHT22;4969;52.304;4.968;2024-03-23T04:38:02;13.17;67.92
9861;DHT22;4969;52.304;4.968;2024-03-23T04:40:30;13.58;67.19
9861;DHT22;4969;52.304;4.968;2024-03-23T04:42:57;13.81;68.28
9861;DHT22;4969;52.304;4.968;2024-03-23T04:45:23;13.86;68.18
9861;DHT22;4969;52.304;4.968;2024-03-23T04:47:50;13.62;67.09
9861;DHT22;4969;52.304;4.968;2024-03-23T04:50:15;13.65;67.12
9861;DHT22;4969;52.304;4.968;2024-03-23T04:52:42;13.61;66.57
9861;DHT22;4969;52.304;4.968;2024-03-23T04:55:07;13.42;68.58
9861;DHT22;4969;52.304;4.968;2024-03-23T04:57:35;13.37;66.07
9861;DHT22;4969;52.304;4.968;2024-03-23T05:00:02;12.89;65.86
9861;DHT22;4969;52.304;4.968;2024-03-23T05:02:29;12.69;65.93
9861;DHT22;4969;52.304;4.968;2024-03-23T05:04:56;12.12;63.15
9861;DHT22;4969;52.304;4.968;2024-03-23T05:07:22;12.10;66.24
9861;DHT22;4969;52.304;4.968;2024-03-23T05:09:48;11.59;65.45
9861;DHT22;4969;52.304;4.968;2024-03-23T05:12:14;11.75;66.37
9861;DHT22;4969;52.304;4.968;2024-03-23T05:14:42;12.02;66.00
9861;DHT22;4969;52.304;4.968;2024-03-23T05:17:07;12.16;67.12
9861;DHT22;4969;52.304;4.968;2024-03-23T05:19:34;11.87;66.58
9861;DHT22;4969;52.304;4.968;2024-03-23T05:21:59;12.21;69.52
9861;DHT22;4969;52.304;4.968;2024-03-23T05:24:26;12.58;71.94
9861;DHT22;4969;52.304;4.968;2024-03-23T05:26:51;11.65;64.13
9861;DHT22;4969;52.304;4.968;2024-03-23T05:29:18;11.24;64.01
9861;DHT22;4969;52.304;4.968;2024-03-23T05:31:49;11.41;65.69
9861;DHT22;4969;52.304;4.968;2024-03-23T05:34:17;10.31;62.39
9861;DHT22;4969;52.304;4.968;2024-03-23T05:36:42;9.68;65.01
9861;DHT22;4969;52.304;4.968;2024-03-23T05:39:09;9.71;65.39
9861;DHT22;4969;52.304;4.968;2024-03-23T05:41:34;9.54;67.23
9861;DHT22;4969;52.304;4.968;2024-03-23T05:44:01;10.24;67.27
9861;DHT22;4969;52.304;4.968;2024-03-23T05:46:27;10.05;67.09
9861;DHT22;4969;52.304;4.968;2024-03-23T05:49:01;9.79;65.96
9861;DHT22;4969;52.304;4.968;2024-03-23T05:51:27;9.68;65.30
9861;DHT22;4969;52.304;4.968;2024-03-23T05:53:53;9.58;69.28
9861;DHT22;4969;52.304;4.968;2024-03-23T05:56:19;9.95;69.25
9861;DHT22;4969;52.304;4.968;2024-03-23T05:58:46;9.65;67.14
9861;DHT22;4969;52.304;4.968;2024-03-23T06:01:12;9.62;68.08
9861;DHT22;4969;52.304;4.968;2024-03-23T06:03:38;10.05;68.74
9861;DHT22;4969;52.304;4.968;2024-03-23T06:06:05;10.64;72.82
9861;DHT22;4969;52.304;4.968;2024-03-23T06:08:36;10.28;68.21
9861;DHT22;4969;52.304;4.968;2024-03-23T06:11:03;10.05;66.65
9861;DHT22;4969;52.304;4.968;2024-03-23T06:13:31;10.68;66.84
9861;DHT22;4969;52.304;4.968;2024-03-23T06:15:56;10.28;69.92
9861;DHT22;4969;52.304;4.968;2024-03-23T06:18:23;9.96;67.88
9861;DHT22;4969;52.304;4.968;2024-03-23T06:20:49;9.73;65.60
9861;DHT22;4969;52.304;4.968;2024-03-23T06:23:17;9.40;65.72
9861;DHT22;4969;52.304;4.968;2024-03-23T06:25:45;10.14;68.94
9861;DHT22;4969;52.304;4.968;2024-03-23T06:28:11;10.60;70.03
9861;DHT22;4969;52.304;4.968;2024-03-23T06:30:37;10.65;66.35
9861;DHT22;4969;52.304;4.968;2024-03-23T06:33:04;10.30;67.83
9861;DHT22;4969;52.304;4.968;2024-03-23T06:35:30;10.75;68.94
9861;DHT22;4969;52.304;4.968;2024-03-23T06:37:57;10.88;64.61
9861;DHT22;4969;52.304;4.968;2024-03-23T06:40:24;10.17;64.81
9861;DHT22;4969;52.304;4.968;2024-03-23T06:42:51;9.75;66.17
9861;DHT22;4969;52.304;4.968;2024-03-23T06:45:17;9.34;67.60
9861;DHT22;4969;52.304;4.968;2024-03-23T06:47:48;9.44;68.03
9861;DHT22;4969;52.304;4.968;2024-03-23T06:50:13;9.44;67.62
9861;DHT22;4969;52.304;4.968;2024-03-23T06:52:40;9.75;68.50
9861;DHT22;4969;52.304;4.968;2024-03-23T06:55:06;9.68;67.34
9861;DHT22;4969;52.304;4.968;2024-03-23T06:57:34;9.64;70.26
9861;DHT22;4969;52.304;4.968;2024-03-23T07:00:00;9.55;69.63
9861;DHT22;4969;52.304;4.968;2024-03-23T07:02:26;8.84;70.57
9861;DHT22;4969;52.304;4.968;2024-03-23T07:04:52;8.72;69.11
9861;DHT22;4969;52.304;4.968;2024-03-23T07:07:18;8.82;70.17
9861;DHT22;4969;52.304;4.968;2024-03-23T07:09:44;9.47;73.69
9861;DHT22;4969;52.304;4.968;2024-03-23T07:12:10;8.88;68.26
9861;DHT22;4969;52.304;4.968;2024-03-23T07:14:37;9.12;68.90
9861;DHT22;4969;52.304;4.968;2024-03-23T07:17:04;8.65;70.14
9861;DHT22;4969;52.304;4.968;2024-03-23T07:19:29;8.76;70.57
9861;DHT22;4969;52.304;4.968;2024-03-23T07:21:56;8.93;70.55
9861;DHT22;4969;52.304;4.968;2024-03-23T07:24:21;8.95;68.21
9861;DHT22;4969;52.304;4.968;2024-03-23T07:26:48;9.59;74.04
9861;DHT22;4969;52.304;4.968;2024-03-23T07:29:13;8.98;68.87
9861;DHT22;4969;52.304;4.968;2024-03-23T07:31:41;9.31;69.64
9861;DHT22;4969;52.304;4.968;2024-03-23T07:34:07;9.38;69.51
9861;DHT22;4969;52.304;4.968;2024-03-23T07:36:33;9.44;70.94
9861;DHT22;4969;52.304;4.968;2024-03-23T07:38:59;9.48;69.77
9861;DHT22;4969;52.304;4.968;2024-03-23T07:41:26;9.86;72.91
9861;DHT22;4969;52.304;4.968;2024-03-23T07:43:53;9.40;71.17
9861;DHT22;4969;52.304;4.968;2024-03-23T07:46:20;10.14;70.78
9861;DHT22;4969;52.304;4.968;2024-03-23T07:48:47;9.55;67.11
9861;DHT22;4969;52.304;4.968;2024-03-23T07:51:16;9.31;64.94
9861;DHT22;4969;52.304;4.968;2024-03-23T07:53:43;9.64;69.92
9861;DHT22;4969;52.304;4.968;2024-03-23T07:56:11;9.19;67.58
9861;DHT22;4969;52.304;4.968;2024-03-23T07:58:38;9.06;71.73
9861;DHT22;4969;52.304;4.968;2024-03-23T08:01:05;8.98;67.14
9861;DHT22;4969;52.304;4.968;2024-03-23T08:03:33;8.79;66.85
9861;DHT22;4969;52.304;4.968;2024-03-23T08:06:08;8.93;67.80
9861;DHT22;4969;52.304;4.968;2024-03-23T08:08:33;9.55;66.46
9861;DHT22;4969;52.304;4.968;2024-03-23T08:11:00;9.36;68.41
9861;DHT22;4969;52.304;4.968;2024-03-23T08:13:26;9.09;65.42
9861;DHT22;4969;52.304;4.968;2024-03-23T08:15:56;9.28;66.83
9861;DHT22;4969;52.304;4.968;2024-03-23T08:18:22;9.15;66.44
9861;DHT22;4969;52.304;4.968;2024-03-23T08:20:55;9.26;65.48
9861;DHT22;4969;52.304;4.968;2024-03-23T08:23:22;8.92;66.11
9861;DHT22;4969;52.304;4.968;2024-03-23T08:25:49;9.75;69.35
9861;DHT22;4969;52.304;4.968;2024-03-23T08:28:14;9.27;64.69
9861;DHT22;4969;52.304;4.968;2024-03-23T08:30:41;9.62;69.06
9861;DHT22;4969;52.304;4.968;2024-03-23T08:33:07;9.28;64.88
9861;DHT22;4969;52.304;4.968;2024-03-23T08:35:33;10.08;70.04
9861;DHT22;4969;52.304;4.968;2024-03-23T08:38:00;9.79;64.16
9861;DHT22;4969;52.304;4.968;2024-03-23T08:40:27;9.43;64.25
9861;DHT22;4969;52.304;4.968;2024-03-23T08:42:53;9.24;68.25
9861;DHT22;4969;52.304;4.968;2024-03-23T08:45:19;9.69;63.09
9861;DHT22;4969;52.304;4.968;2024-03-23T08:47:47;9.81;66.44
9861;DHT22;4969;52.304;4.968;2024-03-23T08:50:17;9.96;65.96
9861;DHT22;4969;52.304;4.968;2024-03-23T08:52:43;10.17;65.49
9861;DHT22;4969;52.304;4.968;2024-03-23T08:55:10;9.81;62.11
9861;DHT22;4969;52.304;4.968;2024-03-23T08:57:37;9.55;63.40
9861;DHT22;4969;52.304;4.968;2024-03-23T09:00:04;10.06;71.64
9861;DHT22;4969;52.304;4.968;2024-03-23T09:02:31;10.00;64.13
9861;DHT22;4969;52.304;4.968;2024-03-23T09:04:57;9.99;65.15
9861;DHT22;4969;52.304;4.968;2024-03-23T09:07:29;9.58;66.84
9861;DHT22;4969;52.304;4.968;2024-03-23T09:09:56;10.02;65.11
9861;DHT22;4969;52.304;4.968;2024-03-23T09:12:21;10.14;65.15
9861;DHT22;4969;52.304;4.968;2024-03-23T09:14:49;10.45;68.96
9861;DHT22;4969;52.304;4.968;2024-03-23T09:17:15;9.89;63.61
9861;DHT22;4969;52.304;4.968;2024-03-23T09:19:41;9.95;67.95
9861;DHT22;4969;52.304;4.968;2024-03-23T09:22:07;10.17;68.28
9861;DHT22;4969;52.304;4.968;2024-03-23T09:24:33;10.54;70.42
9861;DHT22;4969;52.304;4.968;2024-03-23T09:26:59;10.05;65.79
9861;DHT22;4969;52.304;4.968;2024-03-23T09:29:25;9.75;65.63
9861;DHT22;4969;52.304;4.968;2024-03-23T09:31:53;9.41;68.91
9861;DHT22;4969;52.304;4.968;2024-03-23T09:34:19;9.09;66.12
9861;DHT22;4969;52.304;4.968;2024-03-23T09:36:45;9.05;67.39
9861;DHT22;4969;52.304;4.968;2024-03-23T09:39:11;9.37;69.97
9861;DHT22;4969;52.304;4.968;2024-03-23T09:41:39;9.68;68.88
9861;DHT22;4969;52.304;4.968;2024-03-23T09:44:06;10.02;63.97
9861;DHT22;4969;52.304;4.968;2024-03-23T09:46:32;9.88;64.41
9861;DHT22;4969;52.304;4.968;2024-03-23T09:49:03;9.95;67.08
9861;DHT22;4969;52.304;4.968;2024-03-23T09:51:30;10.79;71.09
9861;DHT22;4969;52.304;4.968;2024-03-23T09:53:57;10.64;63.38
9861;DHT22;4969;52.304;4.968;2024-03-23T09:56:22;10.48;65.70
9861;DHT22;4969;52.304;4.968;2024-03-23T09:58:49;10.72;62.43
9861;DHT22;4969;52.304;4.968;2024-03-23T10:01:15;10.44;61.80
9861;DHT22;4969;52.304;4.968;2024-03-23T10:03:43;10.27;60.22
9861;DHT22;4969;52.304;4.968;2024-03-23T10:06:10;9.71;60.71
9861;DHT22;4969;52.304;4.968;2024-03-23T10:08:36;9.82;61.13
9861;DHT22;4969;52.304;4.968;2024-03-23T10:11:13;9.99;62.52
9861;DHT22;4969;52.304;4.968;2024-03-23T10:13:41;9.65;61.36
9861;DHT22;4969;52.304;4.968;2024-03-23T10:16:07;9.99;70.61
9861;DHT22;4969;52.304;4.968;2024-03-23T10:18:37;10.24;60.70
9861;DHT22;4969;52.304;4.968;2024-03-23T10:21:07;10.36;62.99
9861;DHT22;4969;52.304;4.968;2024-03-23T10:23:38;10.79;64.65
9861;DHT22;4969;52.304;4.968;2024-03-23T10:26:14;10.26;64.83
9861;DHT22;4969;52.304;4.968;2024-03-23T10:28:51;9.64;64.48
9861;DHT22;4969;52.304;4.968;2024-03-23T10:31:17;10.24;66.30
9861;DHT22;4969;52.304;4.968;2024-03-23T10:33:44;10.86;67.75
9861;DHT22;4969;52.304;4.968;2024-03-23T10:36:10;12.07;65.95
9861;DHT22;4969;52.304;4.968;2024-03-23T10:38:40;11.34;64.74
9861;DHT22;4969;52.304;4.968;2024-03-23T10:41:06;10.36;59.83
9861;DHT22;4969;52.304;4.968;2024-03-23T10:43:34;10.17;64.32
9861;DHT22;4969;52.304;4.968;2024-03-23T10:46:00;10.71;65.53
9861;DHT22;4969;52.304;4.968;2024-03-23T10:48:26;10.44;62.68
9861;DHT22;4969;52.304;4.968;2024-03-23T10:50:52;10.34;63.53
9861;DHT22;4969;52.304;4.968;2024-03-23T10:53:21;10.69;66.99
9861;DHT22;4969;52.304;4.968;2024-03-23T10:55:49;9.83;62.46
9861;DHT22;4969;52.304;4.968;2024-03-23T10:58:17;10.42;61.94
9861;DHT22;4969;52.304;4.968;2024-03-23T11:00:44;10.20;60.98
9861;DHT22;4969;52.304;4.968;2024-03-23T11:03:30;10.05;60.86
9861;DHT22;4969;52.304;4.968;2024-03-23T11:05:56;10.03;64.91
9861;DHT22;4969;52.304;4.968;2024-03-23T11:08:33;9.54;62.64
9861;DHT22;4969;52.304;4.968;2024-03-23T11:11:18;10.10;62.53
9861;DHT22;4969;52.304;4.968;2024-03-23T11:13:48;10.41;62.51
9861;DHT22;4969;52.304;4.968;2024-03-23T11:16:15;9.88;59.20
9861;DHT22;4969;52.304;4.968;2024-03-23T11:18:42;9.89;60.03
9861;DHT22;4969;52.304;4.968;2024-03-23T11:21:08;9.65;60.29
9861;DHT22;4969;52.304;4.968;2024-03-23T11:23:35;9.73;61.58
9861;DHT22;4969;52.304;4.968;2024-03-23T11:26:01;10.95;63.62
9861;DHT22;4969;52.304;4.968;2024-03-23T11:28:30;11.28;60.77
9861;DHT22;4969;52.304;4.968;2024-03-23T11:30:56;10.78;58.12
9861;DHT22;4969;52.304;4.968;2024-03-23T11:33:22;10.06;60.13
9861;DHT22;4969;52.304;4.968;2024-03-23T11:35:48;10.61;61.81
9861;DHT22;4969;52.304;4.968;2024-03-23T11:38:17;10.89;60.17
9861;DHT22;4969;52.304;4.968;2024-03-23T11:40:44;10.17;59.75
9861;DHT22;4969;52.304;4.968;2024-03-23T11:43:12;10.19;64.68
9861;DHT22;4969;52.304;4.968;2024-03-23T11:45:41;9.89;59.20
9861;DHT22;4969;52.304;4.968;2024-03-23T11:48:09;10.05;60.55
9861;DHT22;4969;52.304;4.968;2024-03-23T11:50:37;11.16;59.83
9861;DHT22;4969;52.304;4.968;2024-03-23T11:53:13;10.79;57.76
9861;DHT22;4969;52.304;4.968;2024-03-23T11:55:41;10.26;59.42
9861;DHT22;4969;52.304;4.968;2024-03-23T11:58:07;9.96;64.88
9861;DHT22;4969;52.304;4.968;2024-03-23T12:00:34;9.83;59.20
9861;DHT22;4969;52.304;4.968;2024-03-23T12:03:02;9.93;62.94
9861;DHT22;4969;52.304;4.968;2024-03-23T12:05:28;10.30;58.38
9861;DHT22;4969;52.304;4.968;2024-03-23T12:07:54;9.86;58.67
9861;DHT22;4969;52.304;4.968;2024-03-23T12:10:20;10.09;61.92
9861;DHT22;4969;52.304;4.968;2024-03-23T12:13:00;10.69;61.71
9861;DHT22;4969;52.304;4.968;2024-03-23T12:15:27;10.31;58.55
9861;DHT22;4969;52.304;4.968;2024-03-23T12:18:07;10.02;59.26
9861;DHT22;4969;52.304;4.968;2024-03-23T12:20:32;9.24;63.14
9861;DHT22;4969;52.304;4.968;2024-03-23T12:23:05;9.20;66.39
9861;DHT22;4969;52.304;4.968;2024-03-23T12:25:31;8.54;66.13
9861;DHT22;4969;52.304;4.968;2024-03-23T12:27:58;8.33;72.14
9861;DHT22;4969;52.304;4.968;2024-03-23T12:30:24;8.12;70.19
9861;DHT22;4969;52.304;4.968;2024-03-23T12:32:51;8.37;69.70
9861;DHT22;4969;52.304;4.968;2024-03-23T12:35:19;8.54;69.21
9861;DHT22;4969;52.304;4.968;2024-03-23T12:37:45;8.81;70.93
9861;DHT22;4969;52.304;4.968;2024-03-23T12:40:11;9.16;74.94
9861;DHT22;4969;52.304;4.968;2024-03-23T12:42:37;8.73;67.66
9861;DHT22;4969;52.304;4.968;2024-03-23T12:45:03;8.95;69.66
9861;DHT22;4969;52.304;4.968;2024-03-23T12:47:30;9.06;67.12
9861;DHT22;4969;52.304;4.968;2024-03-23T12:49:56;8.91;67.15
9861;DHT22;4969;52.304;4.968;2024-03-23T12:52:24;9.02;68.38
9861;DHT22;4969;52.304;4.968;2024-03-23T12:54:53;8.72;69.67
9861;DHT22;4969;52.304;4.968;2024-03-23T12:57:21;9.44;71.63
9861;DHT22;4969;52.304;4.968;2024-03-23T12:59:47;9.26;63.98
9861;DHT22;4969;52.304;4.968;2024-03-23T13:02:16;9.02;67.93
9861;DHT22;4969;52.304;4.968;2024-03-23T13:04:41;8.76;67.48
9861;DHT22;4969;52.304;4.968;2024-03-23T13:07:08;9.50;67.43
9861;DHT22;4969;52.304;4.968;2024-03-23T13:09:35;9.12;64.89
9861;DHT22;4969;52.304;4.968;2024-03-23T13:12:02;8.99;63.32
9861;DHT22;4969;52.304;4.968;2024-03-23T13:14:28;9.43;63.57
9861;DHT22;4969;52.304;4.968;2024-03-23T13:16:54;8.95;63.07
9861;DHT22;4969;52.304;4.968;2024-03-23T13:19:20;8.95;66.53
9861;DHT22;4969;52.304;4.968;2024-03-23T13:21:52;9.79;67.12
9861;DHT22;4969;52.304;4.968;2024-03-23T13:24:17;9.62;63.60
9861;DHT22;4969;52.304;4.968;2024-03-23T13:26:45;9.55;65.82
9861;DHT22;4969;52.304;4.968;2024-03-23T13:29:10;9.73;65.57
9861;DHT22;4969;52.304;4.968;2024-03-23T13:31:37;9.65;63.42
9861;DHT22;4969;52.304;4.968;2024-03-23T13:34:03;9.50;63.53
9861;DHT22;4969;52.304;4.968;2024-03-23T13:36:29;9.44;64.75
9861;DHT22;4969;52.304;4.968;2024-03-23T13:38:55;10.16;64.85
9861;DHT22;4969;52.304;4.968;2024-03-23T13:41:21;10.06;65.14
9861;DHT22;4969;52.304;4.968;2024-03-23T13:43:48;10.60;63.81
9861;DHT22;4969;52.304;4.968;2024-03-23T13:46:15;10.06;60.18
9861;DHT22;4969;52.304;4.968;2024-03-23T13:48:40;10.40;68.83
9861;DHT22;4969;52.304;4.968;2024-03-23T13:51:07;10.64;65.42
9861;DHT22;4969;52.304;4.968;2024-03-23T13:53:33;10.08;58.76
9861;DHT22;4969;52.304;4.968;2024-03-23T13:55:59;9.77;57.42
9861;DHT22;4969;52.304;4.968;2024-03-23T13:58:25;10.19;68.01
9861;DHT22;4969;52.304;4.968;2024-03-23T14:00:53;10.31;66.82
9861;DHT22;4969;52.304;4.968;2024-03-23T14:03:18;10.55;65.18
9861;DHT22;4969;52.304;4.968;2024-03-23T14:05:45;10.38;58.19
9861;DHT22;4969;52.304;4.968;2024-03-23T14:08:12;10.28;58.37
9861;DHT22;4969;52.304;4.968;2024-03-23T14:10:40;10.83;57.88
9861;DHT22;4969;52.304;4.968;2024-03-23T14:13:06;10.09;58.02
9861;DHT22;4969;52.304;4.968;2024-03-23T14:15:32;10.21;56.88
9861;DHT22;4969;52.304;4.968;2024-03-23T14:17:59;10.08;56.97
9861;DHT22;4969;52.304;4.968;2024-03-23T14:20:26;10.19;58.66
9861;DHT22;4969;52.304;4.968;2024-03-23T14:22:52;10.48;58.92
9861;DHT22;4969;52.304;4.968;2024-03-23T14:25:18;10.10;57.39
9861;DHT22;4969;52.304;4.968;2024-03-23T14:27:45;10.44;60.93
9861;DHT22;4969;52.304;4.968;2024-03-23T14:30:12;10.49;64.85
9861;DHT22;4969;52.304;4.968;2024-03-23T14:32:38;10.63;62.75
9861;DHT22;4969;52.304;4.968;2024-03-23T14:35:06;10.76;69.63
9861;DHT22;4969;52.304;4.968;2024-03-23T14:37:36;10.17;56.75
9861;DHT22;4969;52.304;4.968;2024-03-23T14:40:02;10.21;56.72
9861;DHT22;4969;52.304;4.968;2024-03-23T14:42:29;10.08;61.49
9861;DHT22;4969;52.304;4.968;2024-03-23T14:44:55;10.61;56.43
9861;DHT22;4969;52.304;4.968;2024-03-23T14:47:22;10.83;65.46
9861;DHT22;4969;52.304;4.968;2024-03-23T14:49:47;11.07;65.10
9861;DHT22;4969;52.304;4.968;2024-03-23T14:52:17;10.36;57.66
9861;DHT22;4969;52.304;4.968;2024-03-23T14:54:43;10.65;61.59
9861;DHT22;4969;52.304;4.968;2024-03-23T14:57:10;10.17;58.85
9861;DHT22;4969;52.304;4.968;2024-03-23T14:59:39;10.31;59.47
9861;DHT22;4969;52.304;4.968;2024-03-23T15:02:06;11.10;64.73
9861;DHT22;4969;52.304;4.968;2024-03-23T15:04:31;10.45;60.48
9861;DHT22;4969;52.304;4.968;2024-03-23T15:06:58;10.09;58.93
9861;DHT22;4969;52.304;4.968;2024-03-23T15:09:25;10.63;56.76
9861;DHT22;4969;52.304;4.968;2024-03-23T15:11:51;10.97;59.04
9861;DHT22;4969;52.304;4.968;2024-03-23T15:14:17;10.72;58.05
9861;DHT22;4969;52.304;4.968;2024-03-23T15:16:43;10.92;55.68
9861;DHT22;4969;52.304;4.968;2024-03-23T15:19:09;10.83;56.64
9861;DHT22;4969;52.304;4.968;2024-03-23T15:21:35;10.96;56.16
9861;DHT22;4969;52.304;4.968;2024-03-23T15:24:01;10.83;56.76
9861;DHT22;4969;52.304;4.968;2024-03-23T15:26:29;10.78;56.60
9861;DHT22;4969;52.304;4.968;2024-03-23T15:28:54;10.78;56.99
9861;DHT22;4969;52.304;4.968;2024-03-23T15:31:35;10.27;56.97
9861;DHT22;4969;52.304;4.968;2024-03-23T15:34:01;10.72;65.07
9861;DHT22;4969;52.304;4.968;2024-03-23T15:36:28;10.83;57.58
9861;DHT22;4969;52.304;4.968;2024-03-23T15:38:54;10.48;53.63
9861;DHT22;4969;52.304;4.968;2024-03-23T15:41:21;10.20;57.53
9861;DHT22;4969;52.304;4.968;2024-03-23T15:43:50;10.06;56.19
9861;DHT22;4969;52.304;4.968;2024-03-23T15:46:16;10.16;57.31
9861;DHT22;4969;52.304;4.968;2024-03-23T15:48:44;10.08;62.61
9861;DHT22;4969;52.304;4.968;2024-03-23T15:51:12;9.73;66.37
9861;DHT22;4969;52.304;4.968;2024-03-23T15:53:38;9.71;65.75
9861;DHT22;4969;52.304;4.968;2024-03-23T15:56:05;10.65;69.24
9861;DHT22;4969;52.304;4.968;2024-03-23T15:58:31;11.36;65.02
9861;DHT22;4969;52.304;4.968;2024-03-23T16:01:02;11.99;67.41
9861;DHT22;4969;52.304;4.968;2024-03-23T16:03:29;11.86;65.54
9861;DHT22;4969;52.304;4.968;2024-03-23T16:05:56;11.54;65.16
9861;DHT22;4969;52.304;4.968;2024-03-23T16:08:23;10.91;61.01
9861;DHT22;4969;52.304;4.968;2024-03-23T16:10:50;10.74;61.04
9861;DHT22;4969;52.304;4.968;2024-03-23T16:13:16;10.33;63.90
9861;DHT22;4969;52.304;4.968;2024-03-23T16:15:43;10.83;63.40
9861;DHT22;4969;52.304;4.968;2024-03-23T16:18:10;10.82;61.14
9861;DHT22;4969;52.304;4.968;2024-03-23T16:20:36;11.20;64.52
9861;DHT22;4969;52.304;4.968;2024-03-23T16:23:03;11.03;61.54
9861;DHT22;4969;52.304;4.968;2024-03-23T16:25:30;11.57;64.02
9861;DHT22;4969;52.304;4.968;2024-03-23T16:27:56;10.89;59.73
9861;DHT22;4969;52.304;4.968;2024-03-23T16:30:22;10.89;61.81
9861;DHT22;4969;52.304;4.968;2024-03-23T16:32:48;10.44;62.20
9861;DHT22;4969;52.304;4.968;2024-03-23T16:35:16;10.60;60.90
9861;DHT22;4969;52.304;4.968;2024-03-23T16:37:42;11.03;64.29
9861;DHT22;4969;52.304;4.968;2024-03-23T16:40:09;11.06;60.38
9861;DHT22;4969;52.304;4.968;2024-03-23T16:42:36;10.21;70.11
9861;DHT22;4969;52.304;4.968;2024-03-23T16:45:04;10.82;69.70
9861;DHT22;4969;52.304;4.968;2024-03-23T16:47:29;10.40;67.08
9861;DHT22;4969;52.304;4.968;2024-03-23T16:49:56;10.52;67.23
9861;DHT22;4969;52.304;4.968;2024-03-23T16:52:23;10.78;67.39
9861;DHT22;4969;52.304;4.968;2024-03-23T16:54:50;11.55;74.20
9861;DHT22;4969;52.304;4.968;2024-03-23T16:57:15;10.78;63.34